Aviation Digital Data Service (ADDS)

Output produced by METARs form (0123 UTC 23 July 2017)
found at http://www.aviationweather.gov/adds/metars/
 
EPBY 230100Z 34006KT 290V040 7000 -SHRA FEW003 BKN038CB 16/16 Q1015 RETSRA
TAF EPBY 222330Z 2300/2324 08007KT CAVOK 
     TEMPO 2301/2309 4000 SHRA BKN006 BKN025CB 
     PROB40 
     TEMPO 2309/2312 BKN008 
     TEMPO 2314/2320 TSRA BKN012 BKN025CB 
     BECMG 2321/2323 4000 BR
       
TAF EPCE 222300Z 2300/2309 09008KT CAVOK 
     PROB40 2302/2309 SCT030 BKN085
       
TAF EPDA 222300Z 2300/2309 10006KT CAVOK 
     PROB40 2307/2309 BKN034CB
       
TAF EPDE 221700Z 2218/2303 VRB03KT CAVOK
       
EPGD 230100Z 06004KT 9999 SCT040 15/14 Q1017
TAF EPGD 222330Z 2300/2324 06008KT CAVOK 
     TEMPO 2312/2324 SHRA BKN012 BKN020CB 
     PROB40 
     TEMPO 2314/2324 4000 RA BR BKN007
       
EPKK 230100Z VRB01KT 9999 FEW053 18/17 Q1014
TAF EPKK 222330Z 2300/2324 05003KT 9999 SCT050 
     TEMPO 2300/2304 SHRA BKN030CB 
     PROB40 2300/2306 1500 BR 
     BECMG 2308/2310 25010KT SCT040CB 
     TEMPO 2310/2319 VRB22G38KT 3000 TSRA BKN020CB 
     PROB40 
     TEMPO 2312/2319 1400 TSGR BKN014CB 
     BECMG 2319/2321 CAVOK
       
TAF COR EPKS 222300Z 2300/2309 06008KT 9999 BKN020 
     TEMPO 2300/2301 5000 TSRA BKN015CB
       
EPKT 230100Z 15003KT CAVOK 19/16 Q1014
TAF EPKT 222330Z 2300/2324 12005KT 9999 SCT045 
     TEMPO 2300/2305 3000 BR 
     BECMG 2307/2310 26010KT SCT040CB 
     TEMPO 2310/2319 VRB22G38KT 3000 TSRA BKN020CB 
     PROB40 
     TEMPO 2312/2319 1400 TSGR BKN014CB 
     BECMG 2319/2321 CAVOK
       
EPLB 230100Z 05004KT CAVOK 16/16 Q1016
TAF EPLB 222330Z 2300/2309 07005KT CAVOK
       
EPLL 230100Z 09007KT 070V140 CAVOK 20/17 Q1014
TAF EPLL 222330Z 2300/2324 08008KT CAVOK 
     TEMPO 2300/2305 SHRA BKN040CB 
     BECMG 2309/2311 17010KT 
     TEMPO 2314/2320 3000 TSRA BKN020CB 
     BECMG 2318/2320 27007KT
       
TAF EPMB 222300Z 2300/2309 07008KT CAVOK 
     BECMG 2305/2307 BKN040
       
TAF EPMM 222300Z 2300/2309 08008KT CAVOK 
     BECMG 2307/2309 SCT030
       
EPMO 230100Z 08009KT CAVOK 16/14 Q1015
TAF EPMO 222330Z 2300/2324 08008KT CAVOK 
     PROB30 
     TEMPO 2306/2309 SHRA BKN040CB 
     BECMG 2311/2313 17010KT 
     TEMPO 2314/2322 3000 TSRA BKN020CB 
     BECMG 2318/2320 27007KT
       
TAF EPOK 222300Z 2300/2309 08006KT CAVOK
       
EPPO 230100Z 05007KT CAVOK 18/18 Q1013 R10/29//95
TAF EPPO 222330Z 2300/2324 05010KT CAVOK 
     TEMPO 2300/2303 SHRA BKN020CB 
     PROB40 
     TEMPO 2300/2301 4000 TSRA 
     PROB40 2301/2305 2000 BR BKN004 
     BECMG 2309/2312 25006KT 
     TEMPO 2310/2322 BKN030CB 
     PROB40 
     TEMPO 2312/2319 TSRA BKN014CB
       
TAF EPPW 222300Z 2300/2309 09008KT 9999 BKN033 
     TEMPO 2300/2304 5000 SHRA BKN023CB 
     PROB30 
     TEMPO 2300/2304 TSRA
       
EPRA 222000Z VRB02KT CAVOK 20/17 Q1017
TAF EPRA 221730Z 2218/2303 03005KT CAVOK
       
EPRZ 230100Z 26003KT CAVOK 16/16 Q1015
TAF EPRZ 222330Z 2300/2324 10005KT CAVOK 
     TEMPO 2300/2305 SHRA BKN030CB 
     BECMG 2308/2311 SCT040CB 
     TEMPO 2311/2320 VRB22G40KT 3000 TSRA BKN025CB 
     PROB40 
     TEMPO 2312/2319 1100 TSGR BKN013CB 
     BECMG 2320/2322 CAVOK
       
EPSC 230100Z 10010KT 9999 FEW011 18/17 Q1013
TAF EPSC 222330Z 2300/2324 11005KT CAVOK 
     PROB40 
     TEMPO 2302/2307 3000 BR BKN004 
     BECMG 2309/2312 26010KT 
     TEMPO 2312/2320 3000 TSRA BKN012 BKN025CB 
     BECMG 2321/2323 4000 BR
       
TAF EPSY 221730Z 2218/2303 05005KT CAVOK
       
EPWA 230100Z 10006KT CAVOK 18/15 Q1015 NOSIG
TAF EPWA 222330Z 2300/2324 08008KT CAVOK 
     PROB30 
     TEMPO 2306/2309 SHRA BKN040CB 
     BECMG 2311/2313 17010KT 
     TEMPO 2314/2322 3000 TSRA BKN020CB 
     BECMG 2318/2320 27007KT
       
EPWR 230100Z 26006KT CAVOK 18/17 Q1013
TAF EPWR 222330Z 2300/2324 29006KT CAVOK 
     PROB40 2300/2306 1400 BR 
     TEMPO 2310/2320 BKN030CB 
     PROB40 
     TEMPO 2310/2317 VRB15G25KT TSRA
       
EPZG 230100Z 25003KT 220V280 3000 BR OVC008 18/18 Q1013
TAF EPZG 222330Z 2300/2309 22004KT 9999 SCT030 
     TEMPO 2300/2305 1400 BR BKN006 
     PROB30 
     TEMPO 2301/2304 0500 FG BKN003
       
EPZG 230100Z 25003KT 220V280 3000 BR OVC008 18/18 Q1013
TAF EPZG 222330Z 2300/2309 22004KT 9999 SCT030 
     TEMPO 2300/2305 1400 BR BKN006 
     PROB30 
     TEMPO 2301/2304 0500 FG BKN003
       
EPKK 230100Z VRB01KT 9999 FEW053 18/17 Q1014
TAF EPKK 222330Z 2300/2324 05003KT 9999 SCT050 
     TEMPO 2300/2304 SHRA BKN030CB 
     PROB40 2300/2306 1500 BR 
     BECMG 2308/2310 25010KT SCT040CB 
     TEMPO 2310/2319 VRB22G38KT 3000 TSRA BKN020CB 
     PROB40 
     TEMPO 2312/2319 1400 TSGR BKN014CB 
     BECMG 2319/2321 CAVOK
       
TAF EPDE 221700Z 2218/2303 VRB03KT CAVOK
       
EPSC 230100Z 10010KT 9999 FEW011 18/17 Q1013
TAF EPSC 222330Z 2300/2324 11005KT CAVOK 
     PROB40 
     TEMPO 2302/2307 3000 BR BKN004 
     BECMG 2309/2312 26010KT 
     TEMPO 2312/2320 3000 TSRA BKN012 BKN025CB 
     BECMG 2321/2323 4000 BR
       
EPRZ 230100Z 26003KT CAVOK 16/16 Q1015
TAF EPRZ 222330Z 2300/2324 10005KT CAVOK 
     TEMPO 2300/2305 SHRA BKN030CB 
     BECMG 2308/2311 SCT040CB 
     TEMPO 2311/2320 VRB22G40KT 3000 TSRA BKN025CB 
     PROB40 
     TEMPO 2312/2319 1100 TSGR BKN013CB 
     BECMG 2320/2322 CAVOK
       
TAF COR EPKS 222300Z 2300/2309 06008KT 9999 BKN020 
     TEMPO 2300/2301 5000 TSRA BKN015CB
       
EPPO 230100Z 05007KT CAVOK 18/18 Q1013 R10/29//95
TAF EPPO 222330Z 2300/2324 05010KT CAVOK 
     TEMPO 2300/2303 SHRA BKN020CB 
     PROB40 
     TEMPO 2300/2301 4000 TSRA 
     PROB40 2301/2305 2000 BR BKN004 
     BECMG 2309/2312 25006KT 
     TEMPO 2310/2322 BKN030CB 
     PROB40 
     TEMPO 2312/2319 TSRA BKN014CB
       
EPLL 230100Z 09007KT 070V140 CAVOK 20/17 Q1014
TAF EPLL 222330Z 2300/2324 08008KT CAVOK 
     TEMPO 2300/2305 SHRA BKN040CB 
     BECMG 2309/2311 17010KT 
     TEMPO 2314/2320 3000 TSRA BKN020CB 
     BECMG 2318/2320 27007KT
       
EPWA 230100Z 10006KT CAVOK 18/15 Q1015 NOSIG
TAF EPWA 222330Z 2300/2324 08008KT CAVOK 
     PROB30 
     TEMPO 2306/2309 SHRA BKN040CB 
     BECMG 2311/2313 17010KT 
     TEMPO 2314/2322 3000 TSRA BKN020CB 
     BECMG 2318/2320 27007KT
       
EPKT 230100Z 15003KT CAVOK 19/16 Q1014
TAF EPKT 222330Z 2300/2324 12005KT 9999 SCT045 
     TEMPO 2300/2305 3000 BR 
     BECMG 2307/2310 26010KT SCT040CB 
     TEMPO 2310/2319 VRB22G38KT 3000 TSRA BKN020CB 
     PROB40 
     TEMPO 2312/2319 1400 TSGR BKN014CB 
     BECMG 2319/2321 CAVOK
       
EPGD 230100Z 06004KT 9999 SCT040 15/14 Q1017
TAF EPGD 222330Z 2300/2324 06008KT CAVOK 
     TEMPO 2312/2324 SHRA BKN012 BKN020CB 
     PROB40 
     TEMPO 2314/2324 4000 RA BR BKN007
       
EPWR 230100Z 26006KT CAVOK 18/17 Q1013
TAF EPWR 222330Z 2300/2324 29006KT CAVOK 
     PROB40 2300/2306 1400 BR 
     TEMPO 2310/2320 BKN030CB 
     PROB40 
     TEMPO 2310/2317 VRB15G25KT TSRA
       
EPBY 230100Z 34006KT 290V040 7000 -SHRA FEW003 BKN038CB 16/16 Q1015 RETSRA
TAF EPBY 222330Z 2300/2324 08007KT CAVOK 
     TEMPO 2301/2309 4000 SHRA BKN006 BKN025CB 
     PROB40 
     TEMPO 2309/2312 BKN008 
     TEMPO 2314/2320 TSRA BKN012 BKN025CB 
     BECMG 2321/2323 4000 BR
       
TAF EPSY 221730Z 2218/2303 05005KT CAVOK